createdAt,value
2018-07-21T18:02:12.656Z,7.12
2018-07-21T18:04:39.915Z,7.28
2018-07-21T18:07:07.847Z,6.80
2018-07-21T18:09:35.833Z,7.50
2018-07-21T18:12:03.172Z,6.67
2018-07-21T18:14:30.566Z,6.58
2018-07-21T18:16:57.879Z,6.75
2018-07-21T18:19:25.596Z,6.78
2018-07-21T18:21:52.872Z,6.47
2018-07-21T18:24:20.322Z,6.47
2018-07-21T18:26:47.588Z,6.80
2018-07-21T18:29:14.839Z,6.45
2018-07-21T18:31:42.131Z,7.10
2018-07-21T18:34:09.512Z,6.45
2018-07-21T18:36:36.800Z,6.53
2018-07-21T18:39:06.861Z,7.30
2018-07-21T18:41:34.277Z,6.35
2018-07-21T18:44:01.795Z,6.37
2018-07-21T18:46:29.083Z,6.30
2018-07-21T18:48:56.414Z,6.72
2018-07-21T18:51:23.689Z,6.22
2018-07-21T18:53:50.937Z,5.70
2018-07-21T18:56:19.418Z,6.47
2018-07-21T18:58:46.695Z,6.10
2018-07-21T19:01:14.988Z,6.60
2018-07-21T19:03:42.261Z,6.60
2018-07-21T19:06:09.700Z,5.67
2018-07-21T19:08:42.839Z,7.30
2018-07-21T19:11:10.301Z,6.40
2018-07-21T19:13:37.721Z,6.30
2018-07-21T19:16:10.640Z,6.60
2018-07-21T19:18:38.084Z,6.25
2018-07-21T19:21:11.310Z,6.33
2018-07-21T19:23:39.264Z,6.53
2018-07-21T19:26:12.306Z,6.58
2018-07-21T19:28:39.616Z,6.65
2018-07-21T19:31:06.918Z,6.85
2018-07-21T19:33:34.935Z,6.83
2018-07-21T19:36:02.259Z,6.42
2018-07-21T19:38:29.540Z,6.35
2018-07-21T19:41:00.830Z,6.50
2018-07-21T19:43:28.354Z,7.10
2018-07-21T19:45:55.736Z,6.90
2018-07-21T19:48:23.483Z,7.45
2018-07-21T19:50:51.416Z,7.45
2018-07-21T19:53:18.765Z,7.58
2018-07-21T19:55:46.049Z,8.35
2018-07-21T19:58:13.369Z,8.68
2018-07-21T20:00:40.707Z,8.40
2018-07-21T20:03:08.021Z,8.88
2018-07-21T20:05:35.288Z,8.37
2018-07-21T20:08:02.558Z,8.13
2018-07-21T20:10:29.913Z,7.70
2018-07-21T20:12:57.201Z,7.40
2018-07-21T20:15:24.491Z,7.63
2018-07-21T20:17:51.892Z,7.80
2018-07-21T20:20:19.452Z,7.60
2018-07-21T20:22:47.373Z,7.20
2018-07-21T20:25:14.825Z,8.07
2018-07-21T20:27:42.743Z,7.87
2018-07-21T20:30:10.752Z,8.17
2018-07-21T20:32:38.059Z,7.87
2018-07-21T20:35:05.332Z,7.13
2018-07-21T20:37:32.640Z,7.80
2018-07-21T20:39:59.922Z,7.27
2018-07-21T20:42:27.270Z,7.47
2018-07-21T20:44:54.529Z,7.37
2018-07-21T20:47:21.870Z,7.27
2018-07-21T20:49:49.186Z,6.60
2018-07-21T20:52:16.448Z,6.83
2018-07-21T20:54:43.716Z,6.97
2018-07-21T20:57:11.011Z,7.40
2018-07-21T20:59:38.366Z,6.43
2018-07-21T21:02:05.674Z,6.57
2018-07-21T21:04:32.953Z,6.70
2018-07-21T21:07:00.233Z,6.60
2018-07-21T21:09:27.586Z,6.43
2018-07-21T21:11:54.889Z,6.77
2018-07-21T21:14:22.194Z,6.70
2018-07-21T21:16:49.503Z,5.93
2018-07-21T21:19:16.808Z,6.63
2018-07-21T21:21:44.096Z,6.57
2018-07-21T21:24:11.366Z,6.63
2018-07-21T21:26:38.668Z,6.77
2018-07-21T21:29:05.892Z,6.23
2018-07-21T21:31:33.191Z,6.70
2018-07-21T21:34:00.481Z,6.30
2018-07-21T21:36:27.799Z,6.40
2018-07-21T21:38:55.088Z,6.63
2018-07-21T21:41:22.351Z,6.00
2018-07-21T21:43:49.615Z,6.07
2018-07-21T21:46:16.907Z,6.30
2018-07-21T21:48:44.405Z,6.20
2018-07-21T21:51:12.239Z,6.40
2018-07-21T21:53:39.550Z,6.30
2018-07-21T21:56:06.987Z,6.20
2018-07-21T21:58:34.275Z,6.03
2018-07-21T22:01:12.993Z,6.17
2018-07-21T22:03:40.305Z,6.37
2018-07-21T22:06:07.608Z,6.30
2018-07-21T22:08:34.904Z,6.50
2018-07-21T22:11:02.678Z,6.23
2018-07-21T22:13:30.024Z,6.40
2018-07-21T22:15:57.720Z,6.67
2018-07-21T22:18:25.385Z,6.47
2018-07-21T22:20:52.680Z,6.37
2018-07-21T22:23:20.016Z,6.50
2018-07-21T22:25:47.276Z,6.37
2018-07-21T22:28:14.578Z,6.10
2018-07-21T22:30:41.854Z,6.10
2018-07-21T22:33:09.124Z,6.77
2018-07-21T22:35:36.416Z,6.20
2018-07-21T22:38:03.759Z,6.23
2018-07-21T22:40:31.061Z,6.20
2018-07-21T22:42:58.646Z,6.50
2018-07-21T22:45:25.979Z,6.90
2018-07-21T22:47:53.259Z,6.90
2018-07-21T22:50:20.527Z,6.80
2018-07-21T22:52:47.768Z,6.80
2018-07-21T22:55:15.074Z,5.87
2018-07-21T22:57:42.501Z,6.13
2018-07-21T23:00:09.767Z,6.40
2018-07-21T23:02:37.136Z,6.50
2018-07-21T23:05:04.507Z,6.53
2018-07-21T23:07:31.764Z,6.70
2018-07-21T23:09:59.004Z,6.57
2018-07-21T23:12:26.259Z,6.50
2018-07-21T23:14:53.593Z,6.37
2018-07-21T23:17:20.906Z,6.60
2018-07-21T23:19:48.205Z,6.67
2018-07-21T23:22:15.515Z,6.90
2018-07-21T23:24:42.829Z,7.03
2018-07-21T23:27:10.473Z,7.37
2018-07-21T23:29:37.810Z,6.70
2018-07-21T23:32:05.079Z,6.47
2018-07-21T23:37:42.177Z,6.73
2018-07-21T23:40:11.272Z,6.63
2018-07-21T23:42:39.417Z,6.67
2018-07-21T23:45:08.059Z,6.93
2018-07-21T23:47:36.036Z,6.33
2018-07-21T23:50:05.116Z,5.90
2018-07-21T23:52:33.272Z,6.53
2018-07-21T23:55:01.856Z,6.63
2018-07-21T23:57:30.361Z,7.13
